createdAt,value
2018-12-10T00:04:07.651Z,10.16
2018-12-10T00:06:36.794Z,10.12
2018-12-10T00:09:06.884Z,10.08
2018-12-10T00:11:36.582Z,10.07
2018-12-10T00:14:06.850Z,10.07
2018-12-10T00:16:36.128Z,10.04
2018-12-10T00:19:05.233Z,10.05
2018-12-10T00:21:34.522Z,10.04
2018-12-10T00:24:03.931Z,10.04
2018-12-10T00:26:33.113Z,10.07
2018-12-10T00:29:03.259Z,10.13
2018-12-10T00:31:32.460Z,10.18
2018-12-10T00:34:01.531Z,10.19
2018-12-10T00:36:30.924Z,10.18
2018-12-10T00:39:00.027Z,10.15
2018-12-10T00:41:34.125Z,10.17
2018-12-10T00:44:04.976Z,10.23
2018-12-10T00:46:35.191Z,10.28
2018-12-10T01:12:06.701Z,10.23
2018-12-10T01:14:36.046Z,10.18
2018-12-10T01:17:05.191Z,10.15
2018-12-10T01:19:34.542Z,10.15
2018-12-10T01:22:03.794Z,10.15
2018-12-10T01:24:34.559Z,10.15
2018-12-10T01:27:03.726Z,10.14
2018-12-10T01:29:33.022Z,10.14
2018-12-10T01:32:02.775Z,10.14
2018-12-10T01:34:32.040Z,10.11
2018-12-10T01:37:01.260Z,10.09
2018-12-10T01:39:30.464Z,10.07
2018-12-10T01:41:59.758Z,10.08
2018-12-10T01:44:28.931Z,10.07
2018-12-10T01:46:58.136Z,10.06
2018-12-10T01:49:27.840Z,10.04
2018-12-10T01:51:57.035Z,10.01
2018-12-10T01:54:26.265Z,10.02
2018-12-10T01:56:55.485Z,10.02
2018-12-10T01:59:24.748Z,9.99
2018-12-10T02:01:54.378Z,9.97
2018-12-10T02:04:23.508Z,9.96
2018-12-10T02:06:52.638Z,9.94
2018-12-10T02:09:21.784Z,9.93
2018-12-10T02:11:50.908Z,9.94
2018-12-10T02:14:21.079Z,9.94
2018-12-10T02:16:50.380Z,9.95
2018-12-10T02:19:19.630Z,9.98
2018-12-10T02:21:48.762Z,9.97
2018-12-10T02:24:18.281Z,9.96
2018-12-10T02:26:47.400Z,9.91
2018-12-10T02:29:17.547Z,9.85
2018-12-10T02:31:46.662Z,9.82
2018-12-10T02:34:15.945Z,9.80
2018-12-10T02:36:45.335Z,9.80
2018-12-10T02:39:14.911Z,9.80
2018-12-10T02:41:44.026Z,9.80
2018-12-10T02:44:13.193Z,9.83
2018-12-10T02:46:42.891Z,9.90
2018-12-10T02:49:11.990Z,9.94
2018-12-10T02:51:41.227Z,9.95
2018-12-10T02:54:10.607Z,9.93
2018-12-10T02:56:39.873Z,9.91
2018-12-10T02:59:09.050Z,9.89
2018-12-10T03:01:38.127Z,9.86
2018-12-10T03:04:07.287Z,9.84
2018-12-10T03:06:37.229Z,9.84
2018-12-10T03:09:08.302Z,9.85
2018-12-10T03:11:37.498Z,9.89
2018-12-10T03:14:07.165Z,9.94
2018-12-10T03:16:36.420Z,9.99
2018-12-10T03:19:05.534Z,10.02
2018-12-10T03:21:34.740Z,10.04
2018-12-10T03:24:03.922Z,10.07
2018-12-10T03:26:33.047Z,10.09
2018-12-10T03:29:02.150Z,10.08
2018-12-10T03:31:31.296Z,10.05
2018-12-10T03:34:00.535Z,10.04
2018-12-10T03:36:29.805Z,10.04
2018-12-10T03:38:59.003Z,10.04
2018-12-10T03:41:28.201Z,10.04
2018-12-10T03:43:57.332Z,10.03
2018-12-10T03:46:26.535Z,10.02
2018-12-10T03:48:55.735Z,10.02
2018-12-10T03:51:24.937Z,10.00
2018-12-10T03:53:54.137Z,9.97
2018-12-10T03:56:23.432Z,9.93
2018-12-10T03:58:52.735Z,9.89
2018-12-10T04:01:22.029Z,9.87
2018-12-10T04:03:51.376Z,9.85
2018-12-10T04:06:20.576Z,9.82
2018-12-10T04:08:49.746Z,9.81
2018-12-10T04:11:18.982Z,9.78
2018-12-10T04:13:48.241Z,9.75
2018-12-10T04:16:17.353Z,9.73
2018-12-10T04:18:46.475Z,9.71
2018-12-10T04:21:15.622Z,9.71
2018-12-10T04:23:44.861Z,9.72
2018-12-10T04:26:13.963Z,9.75
2018-12-10T04:28:43.049Z,9.75
2018-12-10T04:31:12.143Z,9.73
2018-12-10T04:33:41.225Z,9.70
2018-12-10T04:36:10.459Z,9.66
2018-12-10T04:38:39.605Z,9.65
2018-12-10T04:41:08.735Z,9.63
2018-12-10T04:43:37.825Z,9.63
2018-12-10T04:46:07.112Z,9.65
2018-12-10T04:48:36.312Z,9.65
2018-12-10T04:51:05.447Z,9.65
2018-12-10T04:53:34.735Z,9.63
2018-12-10T04:56:04.329Z,9.63
2018-12-10T04:58:33.435Z,9.63
2018-12-10T05:01:02.715Z,9.63
2018-12-10T05:03:32.337Z,9.62
2018-12-10T05:06:01.465Z,9.61
2018-12-10T05:08:30.565Z,9.59
2018-12-10T05:10:59.653Z,9.58
2018-12-10T05:13:28.739Z,9.53
2018-12-10T05:15:57.898Z,9.52
2018-12-10T05:18:27.018Z,9.48
2018-12-10T05:20:56.129Z,9.48
2018-12-10T05:23:26.353Z,9.48
2018-12-10T05:25:55.565Z,9.49
2018-12-10T05:28:24.727Z,9.48
2018-12-10T05:30:53.916Z,9.48
2018-12-10T05:33:23.162Z,9.48
2018-12-10T05:35:52.372Z,9.47
2018-12-10T05:38:21.525Z,9.47
2018-12-10T05:40:50.737Z,9.48
2018-12-10T05:43:19.913Z,9.48
2018-12-10T05:45:49.120Z,9.50
2018-12-10T05:48:18.352Z,9.52
2018-12-10T05:50:47.531Z,9.53
2018-12-10T05:53:16.908Z,9.54
2018-12-10T05:55:46.620Z,9.58
2018-12-10T05:58:17.656Z,9.61
2018-12-10T06:00:44.957Z,9.65
2018-12-10T06:03:14.027Z,9.67
2018-12-10T06:05:43.244Z,9.67
2018-12-10T06:08:12.411Z,9.68
2018-12-10T06:10:41.602Z,9.69
2018-12-10T06:13:10.807Z,9.71
2018-12-10T06:15:39.911Z,9.74
2018-12-10T06:18:09.097Z,9.75
2018-12-10T06:23:46.670Z,9.74
2018-12-10T06:26:17.141Z,9.75
2018-12-10T06:28:47.267Z,9.74
2018-12-10T07:00:06.316Z,9.65
2018-12-10T07:02:35.820Z,9.62
2018-12-10T07:05:05.029Z,9.58
2018-12-10T07:07:34.271Z,9.55
2018-12-10T07:10:04.033Z,9.53
2018-12-10T07:12:33.277Z,9.50
2018-12-10T07:15:02.458Z,9.48
2018-12-10T07:17:31.616Z,9.45
2018-12-10T07:20:00.881Z,9.43
2018-12-10T07:22:30.112Z,9.40
2018-12-10T07:24:59.250Z,9.37
2018-12-10T07:27:28.577Z,9.35
2018-12-10T07:29:57.837Z,9.32
2018-12-10T07:32:27.040Z,9.29
2018-12-10T07:34:56.235Z,9.27
2018-12-10T07:37:25.529Z,9.24
2018-12-10T07:39:54.780Z,9.22
2018-12-10T07:42:23.967Z,9.21
2018-12-10T07:44:53.165Z,9.20
2018-12-10T07:47:22.271Z,9.18
2018-12-10T07:49:51.524Z,9.17
2018-12-10T07:52:20.880Z,9.14
2018-12-10T07:54:50.846Z,9.13
2018-12-10T07:57:20.050Z,9.11
2018-12-10T07:59:49.221Z,9.09
2018-12-10T08:02:18.415Z,9.07
2018-12-10T08:04:47.601Z,9.03
2018-12-10T08:07:16.758Z,9.01
2018-12-10T08:09:46.018Z,9.01
2018-12-10T08:12:15.651Z,9.01
2018-12-10T08:14:45.066Z,9.04
2018-12-10T08:17:14.246Z,9.06
2018-12-10T08:19:44.045Z,9.08
2018-12-10T08:22:13.215Z,9.10
2018-12-10T08:24:42.625Z,9.12
2018-12-10T08:27:11.865Z,9.15
2018-12-10T08:29:41.976Z,9.17
2018-12-10T08:32:11.929Z,9.20
2018-12-10T08:34:48.067Z,9.25
2018-12-10T08:37:17.223Z,9.34
2018-12-10T08:39:46.448Z,9.42
2018-12-10T08:42:15.553Z,9.47
2018-12-10T08:44:44.671Z,9.53
2018-12-10T08:47:16.108Z,9.58
2018-12-10T08:49:43.445Z,9.62
2018-12-10T08:52:12.737Z,9.67
2018-12-10T08:54:42.059Z,9.70
2018-12-10T08:57:11.318Z,9.74
2018-12-10T08:59:40.535Z,9.78
2018-12-10T09:02:09.818Z,9.82
2018-12-10T09:04:39.066Z,9.86
2018-12-10T09:07:08.357Z,9.90
2018-12-10T09:09:38.222Z,9.94
2018-12-10T09:12:07.629Z,9.97
2018-12-10T09:14:37.533Z,9.99
2018-12-10T09:17:06.790Z,10.02
2018-12-10T09:19:36.037Z,10.02
2018-12-10T09:22:05.285Z,10.04
2018-12-10T09:24:34.531Z,10.04
2018-12-10T09:27:03.834Z,10.06
2018-12-10T09:29:33.224Z,10.09
2018-12-10T09:32:02.399Z,10.13
2018-12-10T09:34:32.513Z,10.18
2018-12-10T09:37:01.968Z,10.26
2018-12-10T09:39:31.166Z,10.34
2018-12-10T09:42:00.569Z,10.41
2018-12-10T09:44:31.440Z,10.50
2018-12-10T09:47:00.674Z,10.59
2018-12-10T09:49:30.081Z,10.65
2018-12-10T09:51:59.613Z,10.71
2018-12-10T09:54:29.310Z,10.77
2018-12-10T09:56:58.521Z,10.83
2018-12-10T09:59:29.313Z,10.88
2018-12-10T10:01:58.771Z,10.90
2018-12-10T10:04:28.276Z,10.93
2018-12-10T10:06:58.507Z,10.96
2018-12-10T10:09:28.726Z,11.00
2018-12-10T10:11:58.619Z,11.02
2018-12-10T10:14:28.571Z,11.05
2018-12-10T10:16:57.985Z,11.08
2018-12-10T10:19:27.205Z,11.10
2018-12-10T10:22:01.587Z,11.11
2018-12-10T10:24:31.893Z,11.15
2018-12-10T10:27:01.448Z,11.17
2018-12-10T10:29:31.346Z,11.20
2018-12-10T10:32:00.418Z,11.21
2018-12-10T10:34:29.671Z,11.24
2018-12-10T10:37:07.985Z,11.25
2018-12-10T10:39:53.318Z,11.25
2018-12-10T10:42:23.795Z,11.27
2018-12-10T10:44:52.957Z,11.29
2018-12-10T10:47:24.608Z,11.31
2018-12-10T10:49:53.759Z,11.34
2018-12-10T10:52:23.068Z,11.37
2018-12-10T10:54:53.013Z,11.40
2018-12-10T10:57:22.399Z,11.44
2018-12-10T10:59:51.930Z,11.46
2018-12-10T11:02:26.113Z,11.47
2018-12-10T11:04:55.524Z,11.50
2018-12-10T11:07:24.853Z,11.52
2018-12-10T11:09:55.533Z,11.53
2018-12-10T11:12:25.089Z,11.55
2018-12-10T11:15:01.532Z,11.57
2018-12-10T11:17:31.302Z,11.59
2018-12-10T11:20:00.544Z,11.62
2018-12-10T11:22:29.964Z,11.64
2018-12-10T11:25:00.666Z,11.66
2018-12-10T11:27:31.512Z,11.70
2018-12-10T11:30:04.900Z,11.72
2018-12-10T11:32:35.573Z,11.75
2018-12-10T11:35:05.253Z,11.78
2018-12-10T11:37:34.554Z,11.79
2018-12-10T11:40:05.806Z,11.80
2018-12-10T11:42:35.176Z,11.82
2018-12-10T11:45:04.586Z,11.84
2018-12-10T11:47:35.130Z,11.85
2018-12-10T11:50:04.441Z,11.85
2018-12-10T11:52:34.915Z,11.87
2018-12-10T11:55:05.119Z,11.89
2018-12-10T11:57:34.343Z,11.92
2018-12-10T12:00:12.136Z,11.98
2018-12-10T12:02:41.432Z,12.00
2018-12-10T12:05:15.466Z,12.03
2018-12-10T12:07:46.213Z,12.05
2018-12-10T12:10:17.769Z,12.04
2018-12-10T12:12:48.148Z,12.02
2018-12-10T12:15:17.320Z,11.99
2018-12-10T12:17:46.732Z,11.94
2018-12-10T12:20:16.360Z,11.93
2018-12-10T12:22:45.640Z,11.91
2018-12-10T12:25:15.021Z,11.90
2018-12-10T12:27:44.412Z,11.91
2018-12-10T12:30:14.019Z,11.93
2018-12-10T12:32:44.152Z,11.97
2018-12-10T12:35:13.845Z,11.97
2018-12-10T12:37:43.044Z,11.95
2018-12-10T12:40:12.445Z,11.92
2018-12-10T12:42:41.745Z,11.89
2018-12-10T12:45:11.876Z,11.85
2018-12-10T12:47:41.166Z,11.82
2018-12-10T12:50:10.706Z,11.83
2018-12-10T12:52:39.927Z,11.83
2018-12-10T12:55:10.196Z,11.83
2018-12-10T12:57:39.441Z,11.83
2018-12-10T13:00:09.024Z,11.81
2018-12-10T13:02:39.181Z,11.81
2018-12-10T13:05:08.675Z,11.80
2018-12-10T13:07:37.932Z,11.80
2018-12-10T13:10:08.864Z,11.80
2018-12-10T13:12:38.207Z,11.81
2018-12-10T13:15:08.889Z,11.82
2018-12-10T13:17:38.173Z,11.81
2018-12-10T13:20:08.003Z,11.82
2018-12-10T13:22:37.301Z,11.80
2018-12-10T13:25:07.111Z,11.77
2018-12-10T13:27:37.233Z,11.75
2018-12-10T13:30:07.211Z,11.74
2018-12-10T13:32:36.979Z,11.72
2018-12-10T13:35:06.504Z,11.70
2018-12-10T13:37:45.873Z,11.68
2018-12-10T13:40:11.744Z,11.64
2018-12-10T13:42:43.281Z,11.61
2018-12-10T13:45:13.426Z,11.58
2018-12-10T13:47:42.560Z,11.56
2018-12-10T13:50:11.838Z,11.56
2018-12-10T13:52:41.467Z,11.58
2018-12-10T13:55:10.725Z,11.60
2018-12-10T13:57:40.070Z,11.64
2018-12-10T14:00:11.329Z,11.70
2018-12-10T14:02:42.397Z,11.74
2018-12-10T14:05:14.609Z,11.78
2018-12-10T14:07:48.056Z,11.82
2018-12-10T14:10:14.499Z,11.87
2018-12-10T14:12:48.036Z,11.91
2018-12-10T14:15:17.327Z,11.95
2018-12-10T14:17:47.982Z,11.97
2018-12-10T14:20:18.070Z,12.00
2018-12-10T14:22:47.287Z,12.02
2018-12-10T14:25:31.342Z,12.03
2018-12-10T14:28:00.899Z,12.04
2018-12-10T14:30:30.032Z,12.03
2018-12-10T14:32:59.692Z,12.02
2018-12-10T14:35:29.097Z,12.01
2018-12-10T14:37:58.368Z,11.98
2018-12-10T14:40:27.784Z,11.95
2018-12-10T14:42:58.684Z,11.93
2018-12-10T14:45:27.884Z,11.92
2018-12-10T14:47:58.720Z,11.90
2018-12-10T14:50:27.921Z,11.91
2018-12-10T14:52:57.178Z,11.92
2018-12-10T14:55:26.242Z,11.94
2018-12-10T14:57:56.334Z,11.95
2018-12-10T15:00:25.534Z,11.95
2018-12-10T15:02:57.657Z,11.97
2018-12-10T15:05:26.554Z,11.98
2018-12-10T15:07:56.003Z,11.97
2018-12-10T15:10:25.238Z,11.97
2018-12-10T15:12:56.261Z,11.95
2018-12-10T15:15:25.681Z,11.93
2018-12-10T15:17:56.592Z,11.91
2018-12-10T15:20:27.295Z,11.89
2018-12-10T15:22:56.679Z,11.86
2018-12-10T15:25:26.761Z,11.86
2018-12-10T15:27:55.980Z,11.85
2018-12-10T15:30:26.105Z,11.84
2018-12-10T15:32:55.969Z,11.83
2018-12-10T15:35:27.857Z,11.82
2018-12-10T15:37:57.495Z,11.82
2018-12-10T15:40:27.202Z,11.81
2018-12-10T15:42:56.340Z,11.79
2018-12-10T15:45:25.482Z,11.79
2018-12-10T15:47:54.663Z,11.79
2018-12-10T15:50:24.454Z,11.80
2018-12-10T15:52:53.588Z,11.78
2018-12-10T15:55:22.961Z,11.74
2018-12-10T15:57:53.743Z,11.71
2018-12-10T16:00:23.008Z,11.66
2018-12-10T16:02:52.279Z,11.63
2018-12-10T16:05:22.045Z,11.59
2018-12-10T16:07:51.753Z,11.56
2018-12-10T16:10:21.782Z,11.54
2018-12-10T16:12:51.010Z,11.52
2018-12-10T16:15:20.247Z,11.47
2018-12-10T16:17:49.723Z,11.46
2018-12-10T16:20:19.220Z,11.43
2018-12-10T16:22:55.423Z,11.40
2018-12-10T16:25:24.944Z,11.36
2018-12-10T16:27:55.310Z,11.33
2018-12-10T16:30:24.891Z,11.30
2018-12-10T16:32:54.871Z,11.27
2018-12-10T16:35:24.289Z,11.26
2018-12-10T16:37:54.476Z,11.25
2018-12-10T16:40:23.818Z,11.27
2018-12-10T16:42:53.717Z,11.27
2018-12-10T16:45:22.953Z,11.28
2018-12-10T16:47:52.372Z,11.26
2018-12-10T16:50:21.748Z,11.26
2018-12-10T16:52:52.473Z,11.28
2018-12-10T16:55:21.758Z,11.26
2018-12-10T16:57:51.461Z,11.25
2018-12-10T17:00:20.681Z,11.23
2018-12-10T17:02:49.897Z,11.22
2018-12-10T17:05:19.178Z,11.20
2018-12-10T17:07:50.025Z,11.17
2018-12-10T17:10:26.283Z,11.13
2018-12-10T17:12:55.489Z,11.10
2018-12-10T17:15:32.109Z,11.07
2018-12-10T17:32:45.546Z,11.03
2018-12-10T17:35:14.614Z,11.05
2018-12-10T17:37:43.979Z,11.04
2018-12-10T17:40:13.373Z,11.03
2018-12-10T17:42:42.514Z,11.02
2018-12-10T17:45:11.788Z,11.00
2018-12-10T17:47:41.078Z,10.99
2018-12-10T17:50:13.060Z,10.98
2018-12-10T17:52:42.365Z,10.93
2018-12-10T17:55:11.777Z,10.89
2018-12-10T17:57:41.054Z,10.86
2018-12-10T18:00:12.007Z,10.81
2018-12-10T18:02:41.226Z,10.73
2018-12-10T18:05:10.485Z,10.67
2018-12-10T18:07:39.680Z,10.62
2018-12-10T18:10:09.097Z,10.55
2018-12-10T18:12:38.348Z,10.50
2018-12-10T18:15:08.322Z,10.46
2018-12-10T18:17:37.702Z,10.43
2018-12-10T18:20:09.464Z,10.39
2018-12-10T18:22:39.175Z,10.37
2018-12-10T18:25:08.483Z,10.33
2018-12-10T18:27:38.439Z,10.29
2018-12-10T18:30:10.257Z,10.27
2018-12-10T18:32:39.598Z,10.24
2018-12-10T18:35:10.604Z,10.20
2018-12-10T18:37:40.000Z,10.15
2018-12-10T18:40:12.470Z,10.08
2018-12-10T18:42:41.888Z,10.03
2018-12-10T18:45:15.569Z,10.01
2018-12-10T18:47:44.847Z,9.98
2018-12-10T18:50:14.267Z,9.96
2018-12-10T18:52:43.642Z,9.94
2018-12-10T18:55:12.836Z,9.91
2018-12-10T18:57:48.417Z,9.84
2018-12-10T19:00:17.619Z,9.79
2018-12-10T19:02:46.843Z,9.75
2018-12-10T19:05:17.086Z,9.69
2018-12-10T19:07:46.612Z,9.64
2018-12-10T19:10:16.789Z,9.61
2018-12-10T19:12:45.995Z,9.59
2018-12-10T19:15:15.753Z,9.58
2018-12-10T19:17:45.780Z,9.57
2018-12-10T19:20:16.026Z,9.55
2018-12-10T19:22:45.988Z,9.53
2018-12-10T19:25:15.226Z,9.52
2018-12-10T19:27:44.469Z,9.52
2018-12-10T19:30:13.636Z,9.53
2018-12-10T19:32:42.863Z,9.49
2018-12-10T19:35:12.113Z,9.44
2018-12-10T19:37:42.566Z,9.42
2018-12-10T19:40:11.705Z,9.41
2018-12-10T19:42:40.874Z,9.41
2018-12-10T19:45:10.981Z,9.43
2018-12-10T19:47:40.138Z,9.43
2018-12-10T19:50:09.512Z,9.46
2018-12-10T19:52:38.599Z,9.49
2018-12-10T19:55:08.739Z,9.50
2018-12-10T19:57:38.101Z,9.52
2018-12-10T20:00:08.759Z,9.54
2018-12-10T20:02:37.968Z,9.59
2018-12-10T20:05:08.556Z,9.63
2018-12-10T20:07:37.828Z,9.67
2018-12-10T20:10:08.932Z,9.70
2018-12-10T20:12:38.135Z,9.70
2018-12-10T20:15:08.412Z,9.68
2018-12-10T20:17:37.698Z,9.66
2018-12-10T20:20:08.338Z,9.62
2018-12-10T20:22:37.641Z,9.59
2018-12-10T20:25:08.685Z,9.61
2018-12-10T20:27:37.940Z,9.65
2018-12-10T20:30:07.394Z,9.69
2018-12-10T20:32:54.357Z,9.75
2018-12-10T20:35:23.779Z,9.77
2018-12-10T20:37:58.206Z,9.82
2018-12-10T20:40:27.314Z,9.84
2018-12-10T20:45:32.010Z,9.89
2018-12-10T20:48:01.256Z,9.89
2018-12-10T20:50:30.465Z,9.92
2018-12-10T20:52:59.563Z,9.91
2018-12-10T20:55:28.733Z,9.92
2018-12-10T20:57:57.866Z,9.94
2018-12-10T21:00:27.041Z,9.93
2018-12-10T21:02:56.128Z,9.93
2018-12-10T21:05:26.358Z,9.93
2018-12-10T21:07:55.587Z,9.95
2018-12-10T21:10:26.746Z,9.95
2018-12-10T21:12:55.877Z,9.95
2018-12-10T21:15:26.149Z,9.95
2018-12-10T21:17:55.560Z,9.94
2018-12-10T21:20:24.795Z,9.93
2018-12-10T21:22:53.955Z,9.95
2018-12-10T21:25:23.808Z,9.98
2018-12-10T21:27:52.904Z,9.99
2018-12-10T21:30:22.024Z,9.98
2018-12-10T21:32:51.293Z,9.95
2018-12-10T21:35:21.112Z,9.94
2018-12-10T21:37:50.499Z,9.93
2018-12-10T21:40:19.636Z,9.91
2018-12-10T21:42:49.000Z,9.90
2018-12-10T21:45:19.791Z,9.89
2018-12-10T21:47:49.104Z,9.90
2018-12-10T21:50:18.909Z,9.90
2018-12-10T21:52:47.991Z,9.89
2018-12-10T21:55:17.811Z,9.88
2018-12-10T21:57:47.617Z,9.88
2018-12-10T22:00:17.049Z,9.87
2018-12-10T22:02:46.225Z,9.85
2018-12-10T22:05:15.969Z,9.83
2018-12-10T22:07:45.121Z,9.82
2018-12-10T22:10:15.164Z,9.79
2018-12-10T22:12:45.764Z,9.80
2018-12-10T22:15:14.959Z,9.79
2018-12-10T22:17:44.304Z,9.78
2018-12-10T22:20:13.460Z,9.78
2018-12-10T22:22:42.775Z,9.77
2018-12-10T22:25:11.964Z,9.75
2018-12-10T22:27:41.878Z,9.74
2018-12-10T22:30:12.547Z,9.72
2018-12-10T22:32:42.150Z,9.72
2018-12-10T22:35:11.202Z,9.72
2018-12-10T22:37:40.312Z,9.72
2018-12-10T22:40:09.665Z,9.74
2018-12-10T22:42:38.806Z,9.75
2018-12-10T22:45:10.169Z,9.76
2018-12-10T22:47:39.552Z,9.76
2018-12-10T22:50:09.616Z,9.77
2018-12-10T22:52:38.814Z,9.78
2018-12-10T23:12:05.043Z,9.78
2018-12-10T23:14:34.875Z,9.77
2018-12-10T23:17:04.233Z,9.76
2018-12-10T23:19:33.444Z,9.76
2018-12-10T23:22:03.348Z,9.77
2018-12-10T23:24:32.650Z,9.77
2018-12-10T23:27:01.742Z,9.74
2018-12-10T23:29:30.927Z,9.69
2018-12-10T23:32:04.954Z,9.65
2018-12-10T23:34:34.016Z,9.56
2018-12-10T23:37:03.421Z,9.50
2018-12-10T23:39:33.347Z,9.47
2018-12-10T23:42:02.453Z,9.47
2018-12-10T23:44:36.587Z,9.46
2018-12-10T23:47:05.778Z,9.46
2018-12-10T23:49:34.958Z,9.46
2018-12-10T23:52:04.074Z,9.46
2018-12-10T23:54:33.174Z,9.45
2018-12-10T23:57:02.355Z,9.45
2018-12-10T23:59:31.477Z,9.44
